Time;durP1;ratioP1;P1;durP2;ratioP2;P2;SDS_P1;SDS_P2;PMS_P1;PMS_P2;Temp;Humidity;BMP_temperature;BMP_pressure;BME280_temperature;BME280_humidity;BME280_pressure;Samples;Min_cycle;Max_cycle;Signal;HPM_P1;HPM_P2
2021/10/20 00:01:04;;;;;;;;;10.00;7.50;;;;;19.39;49.82;100968.03;5101946;27;45466;-53
2021/10/20 00:03:29;;;;;;;;;11.00;10.00;;;;;19.35;50.39;100966.44;5101905;27;46292;-51
2021/10/20 00:05:57;;;;;;;;;11.00;8.75;;;;;19.34;49.84;100959.38;5102206;27;45274;-52
2021/10/20 00:08:22;;;;;;;;;7.75;7.75;;;;;19.32;49.91;100966.63;5102270;27;45457;-52
2021/10/20 00:10:48;;;;;;;;;10.00;8.00;;;;;19.31;50.46;100967.53;5102034;27;45714;-51
2021/10/20 00:13:13;;;;;;;;;6.75;6.00;;;;;19.30;50.25;100964.00;5101601;27;45520;-53
2021/10/20 00:15:39;;;;;;;;;7.50;7.00;;;;;19.30;50.33;100974.66;5102120;27;45269;-51
2021/10/20 00:18:05;;;;;;;;;10.75;8.00;;;;;19.31;50.41;100972.88;5102149;27;45299;-54
2021/10/20 00:20:31;;;;;;;;;10.00;10.00;;;;;19.25;50.09;100971.34;5101999;27;45245;-52
2021/10/20 00:22:56;;;;;;;;;11.25;10.50;;;;;19.25;50.28;100966.00;5101941;27;45420;-53
2021/10/20 00:25:21;;;;;;;;;7.25;7.25;;;;;19.26;50.52;100962.41;5101875;27;45235;-52
2021/10/20 00:27:48;;;;;;;;;10.25;9.00;;;;;19.26;50.32;100964.22;5101954;27;45399;-52
2021/10/20 00:30:15;;;;;;;;;8.50;8.50;;;;;19.23;50.24;100962.59;5101511;27;45337;-53
2021/10/20 00:32:41;;;;;;;;;8.50;8.50;;;;;19.20;50.28;100957.38;5101429;27;46188;-52
2021/10/20 00:35:07;;;;;;;;;12.00;9.00;;;;;19.18;50.60;100953.91;5101636;27;45409;-53
2021/10/20 00:37:33;;;;;;;;;10.75;10.25;;;;;19.17;50.39;100945.06;5101585;27;45317;-53
2021/10/20 00:39:58;;;;;;;;;13.50;9.75;;;;;19.13;50.48;100932.84;5102028;27;45322;-51
2021/10/20 00:42:24;;;;;;;;;9.50;9.50;;;;;19.11;50.69;100932.03;5101357;27;45503;-53
2021/10/20 00:44:51;;;;;;;;;8.00;8.00;;;;;19.12;50.81;100941.75;5101522;27;45402;-54
2021/10/20 00:47:17;;;;;;;;;10.00;10.00;;;;;19.10;50.90;100940.09;5101590;27;45197;-53
2021/10/20 00:49:43;;;;;;;;;7.00;7.00;;;;;19.06;50.63;100931.41;5079803;28;45183;-53
2021/10/20 00:52:09;;;;;;;;;9.00;9.00;;;;;19.06;51.05;100935.88;5095141;27;46225;-50
2021/10/20 00:54:37;;;;;;;;;12.00;11.50;;;;;19.05;50.62;100923.47;5083015;27;45178;-54
2021/10/20 00:57:03;;;;;;;;;9.00;8.00;;;;;19.02;50.63;100926.28;5101139;27;45341;-53
2021/10/20 00:59:29;;;;;;;;;10.25;10.25;;;;;18.98;50.87;100912.22;5100750;27;45572;-54
2021/10/20 01:01:54;;;;;;;;;9.25;7.50;;;;;18.95;51.11;100907.91;5082642;27;47045;-54
2021/10/20 01:04:21;;;;;;;;;12.25;10.75;;;;;18.95;50.80;100912.41;5085901;27;45484;-53
2021/10/20 01:06:46;;;;;;;;;12.75;9.75;;;;;18.93;51.11;100908.94;5101301;27;45198;-52
2021/10/20 01:09:11;;;;;;;;;8.00;8.00;;;;;18.89;50.95;100905.50;5101257;27;45153;-52
2021/10/20 01:11:37;;;;;;;;;10.50;9.50;;;;;18.90;50.85;100901.94;5100978;27;45218;-53
2021/10/20 01:14:02;;;;;;;;;8.25;7.75;;;;;18.88;50.82;100902.91;5100971;27;45513;-53
2021/10/20 01:16:28;;;;;;;;;10.75;10.00;;;;;18.87;50.77;100901.19;5101188;27;45211;-54
2021/10/20 01:18:53;;;;;;;;;9.00;9.00;;;;;18.87;51.19;100904.72;5101367;27;45174;-53
2021/10/20 01:21:20;;;;;;;;;10.50;9.50;;;;;18.86;51.19;100904.81;5100906;27;46303;-53
2021/10/20 01:23:47;;;;;;;;;9.75;9.75;;;;;18.83;51.13;100895.16;5101357;27;45346;-53
2021/10/20 01:26:13;;;;;;;;;9.75;8.50;;;;;18.81;51.08;100897.88;5101040;27;45331;-54
2021/10/20 01:28:38;;;;;;;;;8.75;8.75;;;;;18.79;51.46;100889.13;5100360;27;45415;-52
2021/10/20 01:31:03;;;;;;;;;15.25;11.75;;;;;18.76;51.57;100883.06;5100994;27;45422;-53
2021/10/20 01:33:29;;;;;;;;;9.25;9.00;;;;;18.74;51.91;100875.16;5100645;27;45294;-52
2021/10/20 01:35:54;;;;;;;;;10.00;10.00;;;;;18.73;51.49;100881.41;5101037;27;45265;-53
2021/10/20 01:38:20;;;;;;;;;8.25;7.75;;;;;18.72;51.63;100871.69;5100651;27;45314;-53
2021/10/20 01:40:45;;;;;;;;;12.25;11.25;;;;;18.68;51.52;100859.47;5082289;27;46342;-53
2021/10/20 01:43:10;;;;;;;;;9.75;9.75;;;;;18.69;51.74;100877.16;5100196;27;45244;-53
2021/10/20 01:45:36;;;;;;;;;11.50;7.75;;;;;18.67;51.56;100871.06;5101000;27;45231;-54
2021/10/20 01:48:01;;;;;;;;;12.25;11.50;;;;;18.64;51.81;100876.50;5082160;27;45363;-53
2021/10/20 01:50:27;;;;;;;;;11.50;10.50;;;;;18.64;51.55;100868.50;5100472;27;45331;-54
2021/10/20 01:52:52;;;;;;;;;9.75;8.25;;;;;18.64;51.68;100863.19;5100539;27;45240;-53
2021/10/20 01:55:18;;;;;;;;;10.50;9.00;;;;;18.61;52.00;100858.03;5100579;27;45192;-53
2021/10/20 01:57:44;;;;;;;;;10.25;10.25;;;;;18.55;51.86;100851.16;5078645;28;45590;-54
2021/10/20 02:00:11;;;;;;;;;12.00;12.00;;;;;18.54;52.02;100845.94;5092225;27;45920;-53
2021/10/20 02:02:36;;;;;;;;;11.25;11.25;;;;;18.50;52.30;100843.41;5100066;27;45312;-51
2021/10/20 02:05:04;;;;;;;;;8.75;8.75;;;;;18.46;52.05;100848.94;5100475;27;45532;-53
2021/10/20 02:07:30;;;;;;;;;12.75;11.25;;;;;18.48;52.16;100842.63;5100353;27;45550;-53
2021/10/20 02:09:55;;;;;;;;;12.00;10.00;;;;;18.45;52.29;100834.78;5100299;27;45328;-52
2021/10/20 02:12:20;;;;;;;;;14.00;12.00;;;;;18.40;52.33;100825.28;5100269;27;45216;-53
2021/10/20 02:14:46;;;;;;;;;13.25;10.00;;;;;18.42;52.30;100818.09;5100248;27;45397;-52
2021/10/20 02:17:11;;;;;;;;;13.25;11.75;;;;;18.38;52.66;100804.06;5101587;27;45406;-53
2021/10/20 02:19:37;;;;;;;;;12.75;12.00;;;;;18.36;52.70;100811.25;5103896;27;46211;-51
2021/10/20 02:22:04;;;;;;;;;12.00;12.00;;;;;18.37;52.72;100809.47;5103736;27;45330;-52
2021/10/20 02:24:30;;;;;;;;;13.00;12.00;;;;;18.36;52.46;100803.25;5085612;27;45254;-53
2021/10/20 02:26:55;;;;;;;;;11.75;10.50;;;;;18.34;53.10;100802.50;5103706;27;45517;-52
2021/10/20 02:29:20;;;;;;;;;13.50;12.25;;;;;18.32;52.62;100796.38;5103307;27;46647;-53
2021/10/20 02:31:46;;;;;;;;;13.75;13.50;;;;;18.28;52.74;100781.50;5103864;27;45403;-52
2021/10/20 02:34:19;;;;;;;;;14.00;14.00;;;;;18.32;52.87;100788.38;5103803;27;45517;-52
2021/10/20 02:36:45;;;;;;;;;14.00;12.00;;;;;18.31;52.49;100782.22;5103782;27;45201;-53
2021/10/20 02:39:10;;;;;;;;;11.75;9.25;;;;;18.34;52.64;100775.88;5103440;27;46041;-52
2021/10/20 02:41:36;;;;;;;;;10.25;10.25;;;;;18.29;52.58;100772.59;5103744;27;45273;-53
2021/10/20 02:44:02;;;;;;;;;13.25;11.00;;;;;18.33;53.08;100768.84;5103316;27;45425;-52
2021/10/20 02:46:29;;;;;;;;;12.75;12.75;;;;;18.34;53.04;100759.94;5103601;27;45741;-53
2021/10/20 02:48:54;;;;;;;;;14.00;14.00;;;;;18.37;53.01;100758.94;5103173;27;47185;-53
2021/10/20 02:51:20;;;;;;;;;12.25;11.25;;;;;18.33;52.66;100761.72;5103273;27;45292;-54
2021/10/20 02:53:45;;;;;;;;;12.25;11.25;;;;;18.26;52.96;100740.78;5103428;27;45480;-53
2021/10/20 02:56:10;;;;;;;;;13.00;11.75;;;;;18.31;52.77;100749.41;5103329;27;45504;-53
2021/10/20 02:58:36;;;;;;;;;7.50;6.50;;;;;18.32;52.91;100759.97;5102735;27;46263;-53
2021/10/20 03:01:01;;;;;;;;;14.25;12.50;;;;;18.29;53.26;100746.84;5102991;27;45167;-53
2021/10/20 03:03:26;;;;;;;;;9.25;9.00;;;;;18.22;53.39;100744.53;5103304;27;45485;-52
2021/10/20 03:05:51;;;;;;;;;9.75;8.25;;;;;18.23;53.34;100725.00;5103117;27;45227;-52
2021/10/20 03:08:17;;;;;;;;;10.50;10.50;;;;;18.24;53.01;100727.56;5102966;27;45345;-55
2021/10/20 03:10:42;;;;;;;;;12.00;12.00;;;;;18.27;53.27;100721.25;5103114;27;45208;-53
2021/10/20 03:13:09;;;;;;;;;13.00;12.00;;;;;18.24;52.99;100726.69;5102881;27;45983;-54
2021/10/20 03:15:34;;;;;;;;;12.25;11.50;;;;;18.24;53.27;100716.94;5103071;27;45697;-54
2021/10/20 03:17:59;;;;;;;;;11.00;10.75;;;;;18.25;53.07;100723.97;5081139;28;47261;-53
2021/10/20 03:20:25;;;;;;;;;10.75;10.75;;;;;18.26;53.17;100720.38;5083801;27;45330;-50
2021/10/20 03:22:50;;;;;;;;;13.25;11.75;;;;;18.27;53.07;100740.72;5084842;27;46037;-52
2021/10/20 03:25:15;;;;;;;;;15.25;13.00;;;;;18.27;53.01;100756.66;5102857;27;45570;-53
2021/10/20 03:27:47;;;;;;;;;10.25;10.25;;;;;18.26;52.97;100744.28;5102194;27;45305;-58
2021/10/20 03:30:14;;;;;;;;;12.50;12.50;;;;;18.23;53.21;100743.59;5102569;27;45390;-53
2021/10/20 03:32:40;;;;;;;;;11.00;10.75;;;;;18.22;53.79;100753.38;5102802;27;45209;-54
2021/10/20 03:35:07;;;;;;;;;10.75;10.75;;;;;18.16;53.61;100738.56;5102734;27;45405;-54
2021/10/20 03:37:32;;;;;;;;;12.00;12.00;;;;;18.13;53.46;100745.81;5102559;27;46545;-54
2021/10/20 03:39:57;;;;;;;;;10.25;10.25;;;;;18.12;53.57;100733.44;5102801;27;46594;-54
2021/10/20 03:42:23;;;;;;;;;12.00;12.00;;;;;18.10;53.40;100730.00;5102498;27;45418;-52
2021/10/20 03:44:51;;;;;;;;;10.75;10.75;;;;;18.10;53.64;100722.00;5083970;27;45469;-52
2021/10/20 03:47:17;;;;;;;;;13.75;11.25;;;;;18.09;53.54;100720.31;5102418;27;45347;-54
2021/10/20 03:49:42;;;;;;;;;14.75;13.25;;;;;18.10;53.41;100733.53;5084345;27;45427;-53
2021/10/20 03:52:07;;;;;;;;;9.75;9.75;;;;;18.03;53.81;100730.25;5102388;27;45812;-52
2021/10/20 03:54:33;;;;;;;;;13.50;11.25;;;;;17.98;53.76;100718.13;5084046;27;45258;-53
2021/10/20 03:56:58;;;;;;;;;14.75;11.25;;;;;18.05;53.59;100729.34;5102036;27;46026;-54
2021/10/20 03:59:23;;;;;;;;;14.50;11.25;;;;;18.06;53.65;100723.94;5101868;27;45260;-53
2021/10/20 04:01:49;;;;;;;;;12.25;11.25;;;;;18.02;53.73;100725.91;5102380;27;45319;-53
2021/10/20 04:04:14;;;;;;;;;13.50;13.25;;;;;17.97;53.64;100729.69;5102195;27;45248;-54
2021/10/20 04:06:39;;;;;;;;;10.75;10.25;;;;;17.93;53.67;100728.06;5083733;27;47106;-59
2021/10/20 04:09:06;;;;;;;;;11.50;10.75;;;;;17.92;53.83;100715.72;5102050;27;45236;-54
2021/10/20 04:11:31;;;;;;;;;10.50;10.50;;;;;17.87;53.76;100722.13;5102258;27;45373;-53
2021/10/20 04:13:56;;;;;;;;;16.50;14.50;;;;;17.89;53.98;100723.84;5101579;27;45749;-50
2021/10/20 04:16:22;;;;;;;;;11.75;10.50;;;;;17.81;53.82;100714.41;5083608;27;47016;-52
2021/10/20 04:18:47;;;;;;;;;12.50;12.25;;;;;17.80;54.18;100712.69;5083609;27;45311;-50
2021/10/20 04:21:12;;;;;;;;;12.00;12.00;;;;;17.78;54.13;100693.28;5102121;27;45295;-51
2021/10/20 04:23:38;;;;;;;;;12.75;11.75;;;;;17.78;54.04;100695.06;5101908;27;45330;-51
2021/10/20 04:26:03;;;;;;;;;12.25;10.50;;;;;17.71;54.42;100687.38;5101825;27;46108;-51
2021/10/20 04:28:28;;;;;;;;;14.50;12.25;;;;;17.71;54.06;100687.38;5101381;27;45454;-54
2021/10/20 04:30:54;;;;;;;;;17.00;9.00;;;;;17.70;54.17;100674.16;5083669;27;45342;-53
2021/10/20 04:33:19;;;;;;;;;12.25;11.25;;;;;17.71;54.01;100676.75;5101586;27;45264;-50
2021/10/20 04:35:44;;;;;;;;;12.00;12.00;;;;;17.72;54.23;100677.59;5101687;27;45302;-52
2021/10/20 04:38:10;;;;;;;;;15.25;14.25;;;;;17.70;53.93;100676.81;5083295;27;45321;-52
2021/10/20 04:40:35;;;;;;;;;9.75;9.50;;;;;17.68;54.29;100673.38;5098142;27;45483;-53
2021/10/20 04:43:01;;;;;;;;;12.50;12.25;;;;;17.61;54.10;100663.94;5096760;27;45426;-53
2021/10/20 04:45:26;;;;;;;;;12.00;12.00;;;;;17.63;54.06;100657.63;5080957;28;46088;-55
2021/10/20 04:47:51;;;;;;;;;10.00;10.00;;;;;17.60;54.44;100655.13;5081207;28;45254;-53
2021/10/20 04:50:18;;;;;;;;;15.75;13.00;;;;;17.61;54.43;100658.63;5099457;27;45693;-50
2021/10/20 04:52:44;;;;;;;;;19.00;12.25;;;;;17.61;54.11;100690.50;5099752;27;45490;-54
2021/10/20 04:55:11;;;;;;;;;14.25;11.75;;;;;17.61;54.46;100671.91;5098892;27;46101;-54
2021/10/20 04:57:36;;;;;;;;;11.75;10.75;;;;;17.64;54.54;100679.75;5082956;27;45369;-54
2021/10/20 05:00:04;;;;;;;;;13.00;12.50;;;;;17.65;54.22;100678.84;5101096;27;45416;-53
2021/10/20 05:02:35;;;;;;;;;12.75;12.75;;;;;17.65;54.36;100685.00;5101220;27;45373;-52
2021/10/20 05:05:02;;;;;;;;;12.00;12.00;;;;;17.66;54.38;100688.50;5082961;27;48103;-51
2021/10/20 05:07:27;;;;;;;;;13.00;11.00;;;;;17.66;54.92;100688.50;5079257;28;45330;-54
2021/10/20 05:09:53;;;;;;;;;10.25;10.25;;;;;17.65;54.48;100692.13;5075148;27;45254;-49
2021/10/20 05:12:18;;;;;;;;;15.50;15.25;;;;;17.64;54.66;100695.69;5101003;27;45314;-53
2021/10/20 05:14:43;;;;;;;;;12.25;10.75;;;;;17.63;54.78;100693.97;5100711;27;46505;-54
2021/10/20 05:17:09;;;;;;;;;11.25;11.25;;;;;17.64;54.55;100693.88;5100988;27;45323;-53
2021/10/20 05:19:34;;;;;;;;;16.50;15.00;;;;;17.62;54.75;100684.25;5101158;27;45236;-54
2021/10/20 05:22:01;;;;;;;;;12.00;11.75;;;;;17.61;54.27;100688.72;5100761;27;45297;-52
2021/10/20 05:24:26;;;;;;;;;14.00;13.00;;;;;17.60;54.80;100675.53;5082154;27;46098;-56
2021/10/20 05:26:54;;;;;;;;;13.25;12.00;;;;;17.59;55.00;100681.75;5100499;27;45314;-51
2021/10/20 05:29:20;;;;;;;;;11.25;11.25;;;;;17.62;54.80;100678.94;5100645;27;45257;-53
2021/10/20 05:31:45;;;;;;;;;13.75;12.25;;;;;17.60;54.83;100656.91;5100754;27;45530;-55
2021/10/20 05:34:11;;;;;;;;;16.25;14.75;;;;;17.62;54.79;100661.22;5100583;27;45413;-49
2021/10/20 05:36:36;;;;;;;;;13.25;12.00;;;;;17.61;54.98;100648.00;5100755;27;45414;-53
2021/10/20 05:39:02;;;;;;;;;15.25;13.50;;;;;17.63;54.59;100649.66;5100722;27;45410;-50
2021/10/20 05:41:27;;;;;;;;;16.50;13.25;;;;;17.64;54.62;100650.53;5094150;27;45522;-49
2021/10/20 05:43:52;;;;;;;;;11.00;11.00;;;;;17.64;54.79;100631.94;5082009;27;47910;-54
2021/10/20 05:46:18;;;;;;;;;11.75;10.75;;;;;17.68;54.84;100634.38;5100638;27;45289;-53
2021/10/20 05:48:43;;;;;;;;;13.75;13.00;;;;;17.69;54.70;100635.25;5095578;27;45456;-52
2021/10/20 05:51:08;;;;;;;;;15.00;12.00;;;;;17.73;54.54;100618.22;5094826;27;45458;-53
2021/10/20 05:53:34;;;;;;;;;14.75;14.50;;;;;17.66;54.97;100612.31;5095585;27;45485;-56
2021/10/20 05:55:59;;;;;;;;;13.00;11.00;;;;;17.73;54.87;100623.53;5086794;27;45729;-57
2021/10/20 05:58:25;;;;;;;;;13.25;13.00;;;;;17.73;54.73;100614.69;5073911;27;45580;-57
2021/10/20 06:00:50;;;;;;;;;14.75;12.25;;;;;17.74;54.85;100616.44;5068455;28;45452;-57
2021/10/20 06:03:15;;;;;;;;;16.25;14.25;;;;;17.73;54.74;100610.25;5092843;27;45352;-52
2021/10/20 06:05:41;;;;;;;;;11.00;11.00;;;;;17.76;54.78;100612.78;5084966;27;45372;-49
2021/10/20 06:08:06;;;;;;;;;14.75;11.75;;;;;17.77;54.88;100609.16;5081308;27;45843;-49
2021/10/20 06:10:32;;;;;;;;;13.50;12.50;;;;;17.77;54.99;100608.31;5080510;27;45276;-62
2021/10/20 06:15:33;;;;;;;;;10.25;6.75;;;;;17.81;54.98;100612.53;5762993;22;46364;-59
2021/10/20 06:17:58;;;;;;;;;13.25;11.25;;;;;17.82;54.97;100609.84;5083617;27;45599;-60
2021/10/20 06:20:23;;;;;;;;;15.75;12.25;;;;;17.78;55.14;100605.56;5088329;27;45521;-55
2021/10/20 06:22:49;;;;;;;;;13.50;11.50;;;;;17.75;54.94;100597.75;5081387;27;46274;-59
2021/10/20 06:25:14;;;;;;;;;11.00;9.50;;;;;17.75;55.12;100570.28;5091595;27;45935;-59
2021/10/20 06:27:41;;;;;;;;;14.25;13.75;;;;;17.77;55.31;100563.97;5080649;27;45248;-58
2021/10/20 06:30:07;;;;;;;;;13.50;12.50;;;;;17.79;55.08;100567.44;5078797;27;45333;-58
2021/10/20 06:32:32;;;;;;;;;10.75;10.25;;;;;17.77;55.00;100548.03;5078976;27;46430;-53
2021/10/20 06:34:58;;;;;;;;;13.50;12.50;;;;;17.75;55.06;100552.56;5078032;28;45335;-51
2021/10/20 06:37:23;;;;;;;;;11.00;10.75;;;;;17.77;55.15;100557.81;5079445;27;45332;-50
2021/10/20 06:39:48;;;;;;;;;16.00;13.25;;;;;17.78;55.03;100568.38;5079572;28;45444;-51
2021/10/20 06:42:14;;;;;;;;;16.00;14.75;;;;;17.76;55.42;100567.59;5079021;27;45343;-52
2021/10/20 06:44:39;;;;;;;;;11.25;11.25;;;;;17.78;55.14;100576.34;5078861;28;45341;-50
2021/10/20 06:47:05;;;;;;;;;12.00;10.50;;;;;17.74;55.29;100580.06;5077593;27;45304;-50
2021/10/20 06:49:30;;;;;;;;;16.00;14.50;;;;;17.78;55.53;100578.16;5092710;27;45320;-57
2021/10/20 06:51:56;;;;;;;;;16.25;12.75;;;;;17.77;55.36;100571.09;5092840;27;47122;-46
2021/10/20 06:54:21;;;;;;;;;6.25;6.00;;;;;17.80;55.32;100578.94;5091599;27;45474;-47
2021/10/20 06:56:48;;;;;;;;;13.75;12.50;;;;;17.75;55.51;100565.88;5093571;27;45463;-52
2021/10/20 06:59:14;;;;;;;;;13.25;10.75;;;;;17.75;55.45;100573.84;5084334;27;45447;-50
2021/10/20 07:01:40;;;;;;;;;12.25;10.25;;;;;17.72;55.37;100566.00;5085534;27;46271;-52
2021/10/20 07:04:05;;;;;;;;;12.75;12.75;;;;;17.76;55.60;100554.31;5088249;27;45308;-52
2021/10/20 07:06:31;;;;;;;;;14.25;12.50;;;;;17.77;55.87;100560.47;5095823;27;45208;-56
2021/10/20 07:08:56;;;;;;;;;11.75;11.50;;;;;17.77;55.59;100561.31;5095886;27;45489;-48
2021/10/20 07:11:23;;;;;;;;;15.75;15.75;;;;;17.80;55.39;100555.88;5093146;27;45970;-52
2021/10/20 07:13:48;;;;;;;;;10.75;10.75;;;;;17.77;55.90;100552.50;5086996;27;45351;-54
2021/10/20 07:16:14;;;;;;;;;14.25;14.00;;;;;17.78;55.81;100548.91;5091607;27;45489;-53
2021/10/20 07:18:39;;;;;;;;;13.75;11.50;;;;;17.75;56.09;100554.34;5087548;27;45704;-56
2021/10/20 07:21:05;;;;;;;;;18.25;14.00;;;;;17.73;55.92;100549.13;5094868;27;46136;-53
2021/10/20 07:23:30;;;;;;;;;13.50;13.25;;;;;17.64;56.54;100537.13;5092753;27;45322;-55
2021/10/20 07:25:56;;;;;;;;;14.00;14.00;;;;;17.65;56.48;100540.66;5100363;27;45346;-54
2021/10/20 07:28:21;;;;;;;;;11.00;11.00;;;;;17.59;56.55;100531.16;5088661;27;45309;-54
2021/10/20 07:30:46;;;;;;;;;15.75;13.25;;;;;17.58;56.69;100526.78;5088890;27;46034;-54
2021/10/20 07:33:12;;;;;;;;;17.50;17.50;;;;;17.55;56.41;100526.94;5095393;27;45310;-54
2021/10/20 07:35:37;;;;;;;;;18.50;15.00;;;;;17.49;56.64;100529.88;5089059;27;45493;-51
2021/10/20 07:38:02;;;;;;;;;13.50;12.50;;;;;17.48;56.65;100520.19;5088511;27;45532;-56
2021/10/20 07:40:28;;;;;;;;;14.25;14.25;;;;;17.42;56.74;100521.34;5093988;27;46289;-56
2021/10/20 07:42:53;;;;;;;;;15.50;13.75;;;;;17.42;56.67;100531.97;5095104;27;45314;-57
2021/10/20 07:45:19;;;;;;;;;18.50;16.75;;;;;17.41;56.84;100545.28;5082025;27;45365;-57
2021/10/20 07:47:46;;;;;;;;;12.25;12.25;;;;;17.40;56.81;100562.19;5095146;27;45548;-55
2021/10/20 07:50:13;;;;;;;;;17.75;15.00;;;;;17.35;57.58;100557.94;5100479;27;46208;-58
2021/10/20 07:52:40;;;;;;;;;16.75;13.50;;;;;17.33;57.80;100558.94;5089237;27;45524;-58
2021/10/20 07:55:07;;;;;;;;;18.25;17.50;;;;;17.27;57.72;100544.16;5093975;27;45430;-57
2021/10/20 07:57:33;;;;;;;;;19.25;17.25;;;;;17.28;58.22;100545.00;5101705;27;45643;-62
2021/10/20 07:59:59;;;;;;;;;13.75;13.25;;;;;17.24;58.53;100565.50;5087021;27;46314;-60
2021/10/20 08:02:24;;;;;;;;;15.25;15.25;;;;;17.19;58.24;100568.41;5088272;27;45346;-62
2021/10/20 08:04:50;;;;;;;;;18.50;18.50;;;;;17.21;58.67;100570.97;5089954;27;45444;-68
2021/10/20 08:07:15;;;;;;;;;20.25;15.75;;;;;17.21;59.02;100573.63;5088190;27;45232;-68
2021/10/20 08:09:42;;;;;;;;;18.25;16.25;;;;;17.16;58.83;100555.25;5092607;27;45914;-68
2021/10/20 08:12:08;;;;;;;;;20.00;17.50;;;;;17.21;58.80;100566.50;5101464;27;45286;-66
2021/10/20 08:14:34;;;;;;;;;16.50;13.25;;;;;17.19;58.92;100557.78;5086686;27;45398;-54
2021/10/20 08:17:00;;;;;;;;;13.00;12.50;;;;;17.20;58.71;100591.34;5098968;27;45456;-54
2021/10/20 08:19:25;;;;;;;;;21.25;19.00;;;;;17.19;58.86;100552.47;5088764;27;46085;-55
2021/10/20 08:21:51;;;;;;;;;21.00;15.25;;;;;17.25;58.84;100558.44;5086610;27;45402;-51
2021/10/20 08:24:16;;;;;;;;;21.00;17.00;;;;;17.25;58.97;100564.59;5101533;27;45489;-56
2021/10/20 08:26:41;;;;;;;;;15.00;15.00;;;;;17.28;58.99;100560.94;5087607;27;45321;-55
2021/10/20 08:29:09;;;;;;;;;19.25;19.25;;;;;17.27;58.87;100560.09;5093605;27;45427;-53
2021/10/20 08:31:34;;;;;;;;;0.00;0.00;;;;;17.29;58.71;100582.09;5094718;27;45335;-53
2021/10/20 08:34:00;;;;;;;;;20.00;20.00;;;;;17.32;58.82;100575.78;5088449;27;45678;-54
2021/10/20 08:36:25;;;;;;;;;17.75;16.50;;;;;17.36;58.97;100580.06;5087614;27;45444;-52
2021/10/20 08:38:50;;;;;;;;;19.50;16.00;;;;;17.40;59.16;100565.69;5092361;27;47066;-54
2021/10/20 08:41:16;;;;;;;;;15.75;15.75;;;;;17.38;59.61;100592.34;5094304;27;45314;-63
2021/10/20 08:43:43;;;;;;;;;15.00;13.50;;;;;17.40;59.59;100580.78;5088278;27;45330;-66
2021/10/20 08:46:08;;;;;;;;;16.75;12.00;;;;;17.43;59.43;100577.97;5096393;27;45422;-54
2021/10/20 08:48:35;;;;;;;;;16.25;16.25;;;;;17.42;59.38;100560.31;5088465;27;46140;-59
2021/10/20 08:51:02;;;;;;;;;21.00;21.00;;;;;17.46;59.49;100569.84;5088248;27;45447;-59
2021/10/20 08:53:29;;;;;;;;;20.25;16.75;;;;;17.48;59.27;100575.97;5094003;27;45291;-58
2021/10/20 08:55:54;;;;;;;;;17.75;16.25;;;;;17.52;59.84;100583.72;5093588;27;45418;-63
2021/10/20 08:58:21;;;;;;;;;16.50;15.00;;;;;17.52;59.54;100575.75;5094187;27;45450;-56
2021/10/20 09:00:47;;;;;;;;;16.50;14.25;;;;;17.55;60.01;100577.41;5093789;27;45429;-57
2021/10/20 09:03:14;;;;;;;;;17.50;15.25;;;;;17.57;59.77;100572.03;5086830;27;45428;-57
2021/10/20 09:05:40;;;;;;;;;20.25;19.75;;;;;17.59;59.70;100581.66;5094539;27;45302;-54
2021/10/20 09:08:07;;;;;;;;;17.00;17.00;;;;;17.57;60.02;100575.53;5100400;27;46194;-69
2021/10/20 09:10:33;;;;;;;;;20.50;16.25;;;;;17.63;59.87;100587.69;5090751;27;45845;-56
2021/10/20 09:13:00;;;;;;;;;17.00;17.00;;;;;17.66;59.50;100587.53;5086825;27;45424;-54
2021/10/20 09:15:29;;;;;;;;;21.25;17.25;;;;;17.65;60.23;100573.41;5085509;27;45335;-56
2021/10/20 09:18:03;;;;;;;;;17.50;15.75;;;;;17.71;60.21;100574.91;5092527;27;46443;-56
2021/10/20 09:20:32;;;;;;;;;17.00;17.00;;;;;17.70;59.94;100574.03;5093513;27;45346;-56
2021/10/20 09:23:12;;;;;;;;;23.25;16.00;;;;;17.74;60.34;100587.19;5089384;27;45511;-57
2021/10/20 09:25:57;;;;;;;;;24.50;19.50;;;;;17.72;60.48;100571.31;5098324;27;45299;-57
2021/10/20 09:28:31;;;;;;;;;18.25;18.25;;;;;17.77;60.19;100569.28;5099724;27;46977;-56
2021/10/20 09:30:57;;;;;;;;;21.25;20.25;;;;;17.78;60.58;100557.72;5100303;27;45329;-54
2021/10/20 09:33:24;;;;;;;;;21.25;19.25;;;;;17.78;60.44;100572.81;5100164;27;45308;-55
2021/10/20 09:35:50;;;;;;;;;16.50;13.50;;;;;17.77;60.89;100569.28;5100155;27;45531;-53
2021/10/20 09:38:15;;;;;;;;;18.50;18.25;;;;;17.79;60.63;100566.59;5099839;27;45560;-55
2021/10/20 09:40:43;;;;;;;;;19.25;17.50;;;;;17.82;60.88;100566.41;5099211;27;45507;-55
2021/10/20 09:43:11;;;;;;;;;20.50;18.75;;;;;17.78;60.53;100563.03;5084716;27;45366;-54
2021/10/20 09:45:39;;;;;;;;;21.25;20.00;;;;;17.85;60.68;100559.16;5091989;27;45524;-57
2021/10/20 09:48:17;;;;;;;;;27.25;26.50;;;;;17.89;60.80;100551.06;5081917;27;46109;-57
2021/10/20 09:51:05;;;;;;;;;22.00;19.50;;;;;17.88;61.14;100544.88;5099979;27;45469;-57
2021/10/20 09:53:33;;;;;;;;;20.25;17.75;;;;;17.95;60.62;100548.13;5086414;27;45586;-57
2021/10/20 09:56:00;;;;;;;;;16.25;13.50;;;;;17.96;60.77;100545.41;5093865;27;45451;-57
2021/10/20 09:58:26;;;;;;;;;21.50;20.75;;;;;17.99;60.90;100558.53;5085872;27;45423;-55
2021/10/20 10:00:54;;;;;;;;;9.25;8.25;;;;;18.03;61.22;100564.56;5085938;27;45392;-56
2021/10/20 10:03:19;;;;;;;;;24.00;21.25;;;;;18.06;61.46;100551.13;5092037;27;45423;-57
2021/10/20 10:05:45;;;;;;;;;18.75;16.25;;;;;18.10;61.59;100558.03;5099312;27;45290;-55
2021/10/20 10:08:11;;;;;;;;;18.50;17.00;;;;;18.16;60.85;100554.19;5079069;27;46322;-58
2021/10/20 10:10:37;;;;;;;;;20.75;17.00;;;;;18.22;61.44;100542.41;5086099;27;45440;-58
2021/10/20 10:13:25;;;;;;;;;20.25;19.75;;;;;18.27;60.96;100535.91;5086679;27;45412;-66
2021/10/20 10:15:53;;;;;;;;;18.50;18.50;;;;;18.30;61.74;100532.25;5085891;27;45369;-55
2021/10/20 10:18:20;;;;;;;;;19.50;19.00;;;;;18.31;61.33;100533.97;5088150;27;47181;-59
2021/10/20 10:20:45;;;;;;;;;90.33;85.00;;;;;18.37;60.75;100532.81;5092527;27;45330;-57
2021/10/20 10:23:26;;;;;;;;;32.00;27.75;;;;;18.36;61.69;100539.91;5090493;27;45432;-54
2021/10/20 10:26:05;;;;;;;;;18.50;17.00;;;;;18.37;62.06;100528.34;5092819;27;45387;-57
2021/10/20 10:28:33;;;;;;;;;43.00;37.25;;;;;18.43;61.20;100528.03;5090825;27;45410;-56
2021/10/20 10:31:03;;;;;;;;;90.00;86.33;;;;;18.48;61.25;100533.97;5088188;27;45306;-51
2021/10/20 10:33:32;;;;;;;;;19.00;16.75;;;;;18.50;61.23;100536.56;5085505;27;45485;-55
2021/10/20 10:36:19;;;;;;;;;18.00;18.00;;;;;18.50;61.41;100533.91;5089429;27;45276;-52
2021/10/20 10:38:45;;;;;;;;;17.00;16.00;;;;;18.57;61.66;100531.81;5094393;27;46297;-53
2021/10/20 10:41:26;;;;;;;;;22.25;18.25;;;;;18.59;60.99;100528.13;5095545;27;45513;-54
2021/10/20 10:44:07;;;;;;;;;10.00;9.25;;;;;18.60;61.37;100531.63;5088108;27;45371;-50
2021/10/20 10:46:34;;;;;;;;;19.50;18.25;;;;;18.61;61.27;100525.38;5095249;27;45499;-58
2021/10/20 10:49:02;;;;;;;;;17.25;15.50;;;;;18.63;61.34;100529.69;5090929;27;48137;-56
2021/10/20 10:51:27;;;;;;;;;11.25;9.00;;;;;18.65;61.79;100526.94;5100655;27;45176;-54
2021/10/20 10:53:55;;;;;;;;;14.00;13.25;;;;;18.70;61.52;100527.56;5092233;27;45165;-58
2021/10/20 10:56:22;;;;;;;;;13.25;12.75;;;;;18.71;61.19;100517.78;5097020;27;45308;-55
2021/10/20 10:59:06;;;;;;;;;13.75;13.25;;;;;18.73;61.63;100505.25;5092604;27;46424;-55
2021/10/20 11:01:46;;;;;;;;;18.25;17.00;;;;;18.76;61.30;100505.94;5096272;27;45403;-54
2021/10/20 11:04:21;;;;;;;;;13.50;11.75;;;;;18.78;61.47;100506.75;5096407;27;45269;-57
2021/10/20 11:06:51;;;;;;;;;14.00;12.00;;;;;18.80;60.82;100475.59;5098247;27;45407;-55
2021/10/20 11:09:27;;;;;;;;;12.75;12.50;;;;;18.84;61.45;100481.59;5097907;27;47482;-53
2021/10/20 11:11:55;;;;;;;;;15.50;14.50;;;;;18.88;60.70;100482.28;5098075;27;45454;-49